Time;durP1;ratioP1;P1;durP2;ratioP2;P2;SDS_P1;SDS_P2;PMS_P1;PMS_P2;Temp;Humidity;BMP_temperature;BMP_pressure;BME280_temperature;BME280_humidity;BME280_pressure;Samples;Min_cycle;Max_cycle;Signal;HPM_P1;HPM_P2
2023/09/05 00:02:06;;;;;;;67.30;48.17;;;17.00;99.90;;;;;;5034812;28;20112;-49
2023/09/05 00:04:33;;;;;;;64.78;49.33;;;17.00;99.90;;;;;;5034845;28;20048;-49
2023/09/05 00:07:00;;;;;;;68.40;48.47;;;17.00;99.90;;;;;;5034595;28;20065;-50
2023/09/05 00:09:27;;;;;;;67.15;50.28;;;16.90;99.90;;;;;;5034486;28;20442;-48
2023/09/05 00:11:54;;;;;;;72.63;51.28;;;16.90;99.90;;;;;;5034700;28;20067;-49
2023/09/05 00:14:21;;;;;;;70.20;50.55;;;16.90;99.90;;;;;;5034701;28;20049;-47
2023/09/05 00:16:48;;;;;;;71.00;50.58;;;16.80;99.90;;;;;;5034249;28;20037;-51
2023/09/05 00:19:15;;;;;;;66.35;50.25;;;16.80;99.90;;;;;;5034495;28;20554;-52
2023/09/05 00:21:42;;;;;;;63.20;50.00;;;16.80;99.90;;;;;;5033356;28;20083;-48
2023/09/05 00:24:08;;;;;;;75.95;54.45;;;16.80;99.90;;;;;;5034301;28;20033;-47
2023/09/05 00:26:35;;;;;;;73.70;52.15;;;16.80;99.90;;;;;;5034519;28;20041;-52
2023/09/05 00:29:04;;;;;;;70.53;52.38;;;16.80;99.90;;;;;;5034487;28;20132;-45
2023/09/05 00:31:31;;;;;;;68.93;50.25;;;16.80;99.90;;;;;;5034337;28;20056;-50
2023/09/05 00:33:58;;;;;;;70.05;50.33;;;16.70;99.90;;;;;;5033303;28;20103;-49
2023/09/05 00:36:26;;;;;;;66.07;49.28;;;16.70;99.90;;;;;;5033918;28;20033;-50
2023/09/05 00:38:52;;;;;;;68.05;49.53;;;16.70;99.90;;;;;;5033039;28;20060;-50
2023/09/05 00:41:19;;;;;;;74.00;51.15;;;16.70;99.90;;;;;;5032950;28;20041;-50
2023/09/05 00:43:49;;;;;;;66.93;50.92;;;16.70;99.90;;;;;;5032803;28;20041;-49
2023/09/05 00:46:18;;;;;;;67.20;49.08;;;16.70;99.90;;;;;;5031894;28;20132;-54
2023/09/05 00:48:44;;;;;;;70.55;49.88;;;16.70;99.90;;;;;;5032622;28;20049;-48
2023/09/05 00:51:12;;;;;;;67.85;50.08;;;16.60;99.90;;;;;;5032695;28;20045;-49
2023/09/05 00:53:39;;;;;;;75.93;53.20;;;16.60;99.90;;;;;;5033716;28;20091;-50
2023/09/05 00:56:06;;;;;;;75.80;54.17;;;16.60;99.90;;;;;;5033659;28;20532;-47
2023/09/05 00:58:33;;;;;;;75.22;54.47;;;16.60;99.90;;;;;;5032279;28;20381;-49
2023/09/05 01:00:59;;;;;;;73.60;52.40;;;16.50;99.90;;;;;;5032082;28;20048;-50
2023/09/05 01:03:26;;;;;;;66.07;49.35;;;16.50;99.90;;;;;;5032363;28;20048;-49
2023/09/05 01:05:53;;;;;;;61.60;47.25;;;16.50;99.90;;;;;;5033869;28;20037;-50
2023/09/05 01:08:21;;;;;;;64.65;47.25;;;16.50;99.90;;;;;;5033737;28;20038;-52
2023/09/05 01:10:47;;;;;;;68.32;48.92;;;16.40;99.90;;;;;;5033649;28;20045;-54
2023/09/05 01:13:15;;;;;;;74.07;50.03;;;16.50;99.90;;;;;;5033577;28;20548;-51
2023/09/05 01:15:42;;;;;;;67.18;49.40;;;16.40;99.90;;;;;;5015973;28;20045;-48
2023/09/05 01:18:09;;;;;;;71.70;48.80;;;16.40;99.90;;;;;;5033323;28;20060;-53
2023/09/05 01:20:36;;;;;;;62.58;47.10;;;16.40;99.90;;;;;;5033442;28;20041;-49
2023/09/05 01:23:03;;;;;;;59.60;45.72;;;16.40;99.90;;;;;;5032126;28;20378;-50
2023/09/05 01:25:30;;;;;;;60.97;44.42;;;16.30;99.90;;;;;;5033792;28;20044;-46
2023/09/05 01:27:58;;;;;;;55.13;41.92;;;16.30;99.90;;;;;;5031923;28;20485;-48
2023/09/05 01:30:25;;;;;;;54.75;41.67;;;16.20;99.90;;;;;;5032067;28;20057;-48
2023/09/05 01:32:52;;;;;;;53.28;41.80;;;16.20;99.90;;;;;;5032125;28;20049;-50
2023/09/05 01:35:19;;;;;;;50.40;39.50;;;16.20;99.90;;;;;;5031517;28;20041;-49
2023/09/05 01:37:46;;;;;;;50.42;37.97;;;16.10;99.90;;;;;;5031857;28;20069;-48
2023/09/05 01:40:13;;;;;;;47.92;34.88;;;16.10;99.90;;;;;;5033197;28;20052;-48
2023/09/05 01:42:40;;;;;;;49.33;37.92;;;16.00;99.90;;;;;;5033560;28;20029;-47
2023/09/05 01:45:07;;;;;;;54.05;40.08;;;16.00;99.90;;;;;;5031780;28;20046;-52
2023/09/05 01:47:34;;;;;;;55.10;39.03;;;16.00;99.90;;;;;;5033321;28;20048;-47
2023/09/05 01:50:01;;;;;;;55.35;41.55;;;15.90;99.90;;;;;;5033493;28;20079;-51
2023/09/05 01:52:27;;;;;;;54.70;41.72;;;15.90;99.90;;;;;;5031868;28;20084;-48
2023/09/05 01:54:54;;;;;;;58.72;42.05;;;15.90;99.90;;;;;;5033018;28;20049;-48
2023/09/05 01:57:21;;;;;;;59.20;43.58;;;15.80;99.90;;;;;;5035372;28;20069;-52
2023/09/05 01:59:48;;;;;;;61.03;45.60;;;15.80;99.90;;;;;;5037304;28;20052;-48
2023/09/05 02:02:14;;;;;;;58.10;44.22;;;15.80;99.90;;;;;;5035768;28;20049;-52
2023/09/05 02:04:41;;;;;;;59.05;44.60;;;15.80;99.90;;;;;;5036940;28;20049;-52
2023/09/05 02:07:09;;;;;;;61.28;42.83;;;15.70;99.90;;;;;;5036938;28;20056;-48
2023/09/05 02:09:36;;;;;;;57.95;43.47;;;15.80;99.90;;;;;;5019542;28;20049;-48
2023/09/05 02:12:02;;;;;;;54.63;41.53;;;15.80;99.90;;;;;;5035813;28;20042;-50
2023/09/05 02:14:29;;;;;;;55.15;41.45;;;15.70;99.90;;;;;;5035617;28;20048;-49
2023/09/05 02:16:56;;;;;;;60.45;42.92;;;15.70;99.90;;;;;;5036561;28;20155;-50
2023/09/05 02:19:25;;;;;;;59.65;43.85;;;15.80;99.90;;;;;;5035631;28;20049;-50
2023/09/05 02:21:51;;;;;;;61.72;44.97;;;15.70;99.90;;;;;;5036839;28;20069;-51
2023/09/05 02:24:18;;;;;;;68.15;47.85;;;15.70;99.90;;;;;;5036829;28;20069;-51
2023/09/05 02:26:46;;;;;;;65.40;47.08;;;15.70;99.90;;;;;;5036859;28;20069;-49
2023/09/05 02:29:13;;;;;;;58.53;44.78;;;15.70;99.90;;;;;;5035302;28;20054;-52
2023/09/05 02:31:39;;;;;;;57.92;44.83;;;15.70;99.90;;;;;;5035641;28;20052;-51
2023/09/05 02:34:06;;;;;;;59.58;44.35;;;15.70;99.90;;;;;;5036696;28;20049;-50
2023/09/05 02:36:33;;;;;;;62.30;44.50;;;15.70;99.90;;;;;;5036430;28;20041;-52
2023/09/05 02:39:00;;;;;;;63.08;42.63;;;15.70;99.90;;;;;;5037002;28;20046;-50
2023/09/05 02:41:26;;;;;;;56.38;42.30;;;15.70;99.90;;;;;;5036985;28;20380;-48
2023/09/05 02:43:53;;;;;;;56.30;41.95;;;15.70;99.90;;;;;;5036097;28;20072;-52
2023/09/05 02:46:21;;;;;;;54.33;42.15;;;15.70;99.90;;;;;;5036343;28;20080;-49
2023/09/05 02:48:49;;;;;;;56.42;42.90;;;15.70;99.90;;;;;;5035078;28;20048;-51
2023/09/05 02:51:15;;;;;;;55.60;40.58;;;15.60;99.90;;;;;;5036133;28;20047;-53
2023/09/05 02:53:42;;;;;;;57.17;40.35;;;15.70;99.90;;;;;;5036014;28;20044;-51
2023/09/05 02:56:09;;;;;;;54.53;41.40;;;15.60;99.90;;;;;;5036319;28;20033;-50
2023/09/05 02:58:36;;;;;;;57.58;42.97;;;15.60;99.90;;;;;;5034723;28;20044;-54
2023/09/05 03:01:02;;;;;;;60.03;43.50;;;15.60;99.90;;;;;;5035097;28;20397;-47
2023/09/05 03:03:29;;;;;;;58.10;43.33;;;15.50;99.90;;;;;;5034844;28;20439;-50
2023/09/05 03:05:56;;;;;;;57.00;42.60;;;15.50;99.90;;;;;;5034901;28;20107;-50
2023/09/05 03:08:23;;;;;;;57.15;42.70;;;15.50;99.90;;;;;;5017331;28;20052;-52
2023/09/05 03:10:51;;;;;;;62.63;42.67;;;15.50;99.90;;;;;;5034482;28;20049;-52
2023/09/05 03:13:19;;;;;;;57.70;42.47;;;15.50;99.90;;;;;;5034460;28;20053;-51
2023/09/05 03:15:45;;;;;;;62.55;45.17;;;15.40;99.90;;;;;;5035628;28;20483;-53
2023/09/05 03:18:12;;;;;;;59.35;42.22;;;15.40;99.90;;;;;;5035699;28;20096;-48
2023/09/05 03:20:39;;;;;;;66.25;48.25;;;15.30;99.90;;;;;;5035539;28;20397;-49
2023/09/05 03:23:06;;;;;;;62.65;44.78;;;15.30;99.90;;;;;;5035869;28;20125;-53
2023/09/05 03:25:33;;;;;;;61.33;44.38;;;15.30;99.90;;;;;;5035642;28;20388;-51
2023/09/05 03:28:00;;;;;;;67.15;46.00;;;15.30;99.90;;;;;;5034222;28;20096;-50
2023/09/05 03:30:27;;;;;;;66.53;47.67;;;15.30;99.90;;;;;;5017755;28;20095;-50
2023/09/05 03:32:54;;;;;;;67.55;47.60;;;15.30;99.90;;;;;;5034316;28;20144;-54
2023/09/05 03:35:21;;;;;;;63.90;46.75;;;15.30;99.90;;;;;;5034256;28;20045;-52
2023/09/05 03:37:48;;;;;;;74.82;48.85;;;15.30;99.90;;;;;;5033995;28;20489;-51
2023/09/05 03:40:15;;;;;;;74.55;50.30;;;15.30;99.90;;;;;;5033939;28;20061;-51
2023/09/05 03:42:43;;;;;;;73.85;52.42;;;15.20;99.90;;;;;;5033928;28;20041;-49
2023/09/05 03:45:10;;;;;;;91.68;59.50;;;15.20;99.90;;;;;;5034965;28;20070;-55
2023/09/05 03:47:37;;;;;;;91.82;60.42;;;15.20;99.90;;;;;;5033720;28;20045;-54
2023/09/05 03:50:24;;;;;;;98.50;62.42;;;15.20;99.90;;;;;;5034084;28;20068;-53
2023/09/05 03:52:51;;;;;;;102.55;66.32;;;15.20;99.90;;;;;;5034717;28;20045;-51
2023/09/05 03:55:18;;;;;;;108.22;69.50;;;15.20;99.90;;;;;;5033417;28;20053;-47
2023/09/05 03:57:44;;;;;;;115.05;70.90;;;15.20;99.90;;;;;;5033236;28;20132;-49
2023/09/05 04:00:11;;;;;;;126.70;76.05;;;15.20;99.90;;;;;;5033323;28;20044;-52
2023/09/05 04:02:41;;;;;;;127.53;75.72;;;15.20;99.90;;;;;;5033207;28;20382;-51
2023/09/05 04:05:08;;;;;;;125.20;75.00;;;15.20;99.90;;;;;;5034962;28;20040;-51
2023/09/05 04:07:35;;;;;;;126.68;76.25;;;15.10;99.90;;;;;;5034491;28;20037;-51
2023/09/05 04:10:02;;;;;;;127.30;74.35;;;15.10;99.90;;;;;;5034748;28;20053;-52
2023/09/05 04:12:29;;;;;;;115.07;71.85;;;15.10;99.90;;;;;;5033285;28;20437;-46
2023/09/05 04:14:56;;;;;;;126.57;74.60;;;15.10;99.90;;;;;;5034976;28;20045;-51
2023/09/05 04:17:22;;;;;;;119.00;72.68;;;15.10;99.90;;;;;;5034468;28;20034;-49
2023/09/05 04:19:50;;;;;;;117.60;70.57;;;15.10;99.90;;;;;;5034485;28;20042;-52
2023/09/05 04:22:17;;;;;;;117.18;69.85;;;15.10;99.90;;;;;;5034346;28;20037;-46
2023/09/05 04:24:44;;;;;;;106.35;66.00;;;15.10;99.90;;;;;;5032975;28;20493;-50
2023/09/05 04:27:10;;;;;;;96.22;66.68;;;15.00;99.90;;;;;;5033149;28;20041;-50
2023/09/05 04:29:37;;;;;;;102.65;63.70;;;15.00;99.90;;;;;;5033282;28;20076;-51
2023/09/05 04:32:04;;;;;;;97.90;63.22;;;15.00;99.90;;;;;;5034189;28;20041;-50
2023/09/05 04:34:34;;;;;;;96.13;60.45;;;15.00;99.90;;;;;;5033520;28;20420;-49
2023/09/05 04:37:01;;;;;;;90.80;59.28;;;15.10;99.90;;;;;;5034349;28;20038;-51
2023/09/05 04:39:28;;;;;;;94.55;59.67;;;15.10;99.90;;;;;;5017069;28;20084;-51
2023/09/05 04:41:55;;;;;;;94.60;61.15;;;15.10;99.90;;;;;;5032427;28;20160;-51
2023/09/05 04:44:22;;;;;;;104.07;63.95;;;15.10;99.90;;;;;;5034522;28;20481;-52
2023/09/05 04:46:48;;;;;;;99.25;64.32;;;15.20;99.90;;;;;;5033754;28;20038;-51
2023/09/05 04:49:15;;;;;;;95.00;62.40;;;15.20;99.90;;;;;;5034000;28;20416;-55
2023/09/05 04:51:42;;;;;;;94.95;62.47;;;15.30;99.90;;;;;;5033663;28;20041;-53
2023/09/05 04:54:09;;;;;;;102.05;63.17;;;15.20;99.90;;;;;;5033709;28;20049;-50
2023/09/05 04:56:36;;;;;;;99.20;63.63;;;15.30;99.90;;;;;;5033624;28;20048;-53
2023/09/05 04:59:02;;;;;;;95.60;63.53;;;15.30;99.90;;;;;;5033695;28;20041;-48
2023/09/05 05:01:30;;;;;;;95.93;61.08;;;15.40;99.90;;;;;;5033899;28;20085;-55
2023/09/05 05:03:56;;;;;;;94.70;59.85;;;15.40;99.90;;;;;;5032777;28;20424;-50
2023/09/05 05:06:28;;;;;;;99.88;62.00;;;15.40;99.90;;;;;;5032702;28;20441;-49
2023/09/05 05:08:55;;;;;;;96.10;60.90;;;15.40;99.90;;;;;;5033387;28;20427;-49
2023/09/05 05:11:22;;;;;;;93.07;60.45;;;15.50;99.90;;;;;;5033422;28;20096;-54
2023/09/05 05:13:49;;;;;;;99.25;61.97;;;15.50;99.90;;;;;;5033248;28;20073;-52
2023/09/05 05:16:15;;;;;;;90.68;58.65;;;15.50;99.90;;;;;;5033559;28;20431;-53
2023/09/05 05:18:42;;;;;;;98.47;62.00;;;15.50;99.90;;;;;;5033371;28;20049;-56
2023/09/05 05:21:09;;;;;;;93.97;59.20;;;15.50;99.90;;;;;;5033287;28;20037;-52
2023/09/05 05:23:36;;;;;;;91.70;61.65;;;15.60;99.90;;;;;;5033039;28;20041;-53
2023/09/05 05:26:02;;;;;;;90.93;59.70;;;15.60;99.90;;;;;;5033460;28;20048;-52
2023/09/05 05:28:29;;;;;;;95.10;59.00;;;15.70;99.90;;;;;;5033262;28;20041;-48
2023/09/05 05:30:56;;;;;;;90.18;57.92;;;15.60;99.90;;;;;;5032747;28;20088;-50
2023/09/05 05:33:23;;;;;;;95.60;58.63;;;15.70;99.90;;;;;;5033454;28;20067;-52
2023/09/05 05:35:50;;;;;;;82.72;53.55;;;15.70;99.90;;;;;;5033358;28;20088;-51
2023/09/05 05:38:16;;;;;;;76.28;54.20;;;15.70;99.90;;;;;;5032481;28;20481;-52
2023/09/05 05:40:43;;;;;;;75.85;53.47;;;15.70;99.90;;;;;;5032924;28;20037;-54
2023/09/05 05:43:10;;;;;;;71.40;52.13;;;15.70;99.90;;;;;;5033271;28;20046;-50
2023/09/05 05:45:37;;;;;;;72.57;53.33;;;15.70;99.90;;;;;;5033468;28;20042;-52
2023/09/05 05:48:07;;;;;;;69.03;50.90;;;15.60;99.90;;;;;;5033206;28;20469;-50
2023/09/05 05:50:34;;;;;;;78.55;52.83;;;15.60;99.90;;;;;;5033497;28;20057;-51
2023/09/05 05:53:00;;;;;;;83.05;54.47;;;15.70;99.90;;;;;;5033112;28;20045;-52
2023/09/05 05:55:27;;;;;;;76.32;54.15;;;15.70;99.90;;;;;;5031887;28;20472;-52
2023/09/05 05:57:58;;;;;;;76.38;54.28;;;15.70;99.90;;;;;;5033004;28;20470;-51
2023/09/05 06:00:25;;;;;;;75.20;53.45;;;15.70;99.90;;;;;;5033046;28;20046;-55
2023/09/05 06:02:52;;;;;;;63.30;50.00;;;15.60;99.90;;;;;;5033323;28;20045;-51
2023/09/05 06:05:18;;;;;;;76.10;55.03;;;15.70;99.90;;;;;;5033054;28;20120;-49
2023/09/05 06:07:45;;;;;;;67.60;50.17;;;15.70;99.90;;;;;;5032970;28;20584;-50
2023/09/05 06:10:12;;;;;;;65.72;51.45;;;15.70;99.90;;;;;;5033265;28;20500;-48
2023/09/05 06:12:39;;;;;;;66.40;48.83;;;15.70;99.90;;;;;;5032425;28;20542;-52
2023/09/05 06:15:06;;;;;;;63.03;48.58;;;15.70;99.90;;;;;;5032921;28;20488;-46
2023/09/05 06:17:32;;;;;;;63.17;48.75;;;15.80;99.90;;;;;;5033161;28;20471;-51
2023/09/05 06:19:59;;;;;;;66.15;48.65;;;15.80;99.90;;;;;;5032578;28;20046;-50
2023/09/05 06:22:26;;;;;;;67.95;49.30;;;15.80;99.90;;;;;;5032725;28;20065;-52
2023/09/05 06:24:53;;;;;;;66.75;49.78;;;15.80;99.90;;;;;;5032707;28;20113;-55
2023/09/05 06:27:20;;;;;;;63.40;48.25;;;15.90;99.90;;;;;;5032434;28;20045;-51
2023/09/05 06:29:47;;;;;;;61.72;48.00;;;15.90;99.90;;;;;;5032951;28;20042;-49
2023/09/05 06:32:13;;;;;;;67.97;50.42;;;15.90;99.90;;;;;;5033060;28;20037;-52
2023/09/05 06:34:40;;;;;;;65.45;48.28;;;16.00;99.90;;;;;;5032563;28;20046;-47
2023/09/05 06:37:07;;;;;;;65.45;48.95;;;16.00;99.90;;;;;;5032245;28;20128;-46
2023/09/05 06:39:34;;;;;;;68.00;47.60;;;16.00;99.90;;;;;;5032599;28;20042;-47
2023/09/05 06:42:00;;;;;;;64.65;48.05;;;16.10;99.90;;;;;;5032820;28;20045;-50
2023/09/05 06:44:35;;;;;;;61.28;47.17;;;16.10;99.90;;;;;;5033808;28;20095;-50
2023/09/05 06:47:02;;;;;;;62.25;46.83;;;16.20;99.90;;;;;;5036359;28;20112;-51
2023/09/05 06:49:29;;;;;;;64.00;47.13;;;16.20;99.90;;;;;;5036556;28;20037;-49
2023/09/05 06:51:56;;;;;;;65.45;48.00;;;16.30;99.90;;;;;;5035974;28;20048;-50
2023/09/05 06:54:22;;;;;;;63.08;46.03;;;16.40;99.90;;;;;;5035843;28;20055;-49
2023/09/05 06:56:49;;;;;;;58.38;45.67;;;16.40;99.90;;;;;;5035691;28;20136;-47
2023/09/05 06:59:19;;;;;;;59.92;46.13;;;16.50;99.90;;;;;;5036200;28;20044;-48
2023/09/05 07:01:46;;;;;;;57.10;44.63;;;16.50;99.90;;;;;;5035631;28;20128;-47
2023/09/05 07:04:13;;;;;;;59.00;45.42;;;16.50;99.90;;;;;;5035986;28;20423;-55
2023/09/05 07:06:40;;;;;;;59.80;44.60;;;16.60;99.90;;;;;;5036149;28;20477;-50
2023/09/05 07:09:06;;;;;;;58.13;44.90;;;16.70;99.90;;;;;;5035866;28;20042;-48
2023/09/05 07:11:33;;;;;;;52.88;41.72;;;16.80;99.90;;;;;;5034425;28;20046;-50
2023/09/05 07:14:00;;;;;;;47.38;40.40;;;16.90;99.90;;;;;;5036207;28;20056;-47
2023/09/05 07:16:27;;;;;;;52.15;42.85;;;17.00;99.90;;;;;;5035563;28;20493;-47
2023/09/05 07:18:59;;;;;;;55.55;42.67;;;17.10;99.90;;;;;;5036196;28;20042;-52
2023/09/05 07:21:26;;;;;;;56.00;42.30;;;17.20;99.90;;;;;;5036135;28;20125;-51
2023/09/05 07:23:53;;;;;;;51.75;41.75;;;17.30;99.90;;;;;;5034417;28;20045;-50
2023/09/05 07:26:20;;;;;;;54.88;40.42;;;17.40;99.90;;;;;;5035684;28;20068;-53
2023/09/05 07:28:47;;;;;;;50.92;41.53;;;17.50;99.90;;;;;;5034917;28;20549;-54
2023/09/05 07:31:17;;;;;;;47.63;39.58;;;17.60;99.90;;;;;;5034946;28;20126;-50
2023/09/05 07:33:44;;;;;;;49.45;39.33;;;17.70;99.90;;;;;;5042108;28;20047;-51
2023/09/05 07:36:11;;;;;;;46.95;37.33;;;17.80;99.90;;;;;;5035203;28;20510;-52
2023/09/05 07:38:38;;;;;;;42.67;36.85;;;17.90;99.90;;;;;;5034904;28;20044;-55
2023/09/05 07:41:05;;;;;;;47.17;36.72;;;18.00;99.90;;;;;;5034849;28;20037;-49
2023/09/05 07:43:34;;;;;;;43.67;36.42;;;18.10;99.90;;;;;;5035011;28;20120;-51
2023/09/05 07:46:01;;;;;;;43.85;34.97;;;18.10;99.90;;;;;;5034453;28;20116;-51
2023/09/05 07:48:28;;;;;;;43.47;36.45;;;18.20;99.90;;;;;;5034741;28;20038;-54
2023/09/05 07:50:55;;;;;;;48.50;35.42;;;18.20;99.90;;;;;;5034854;28;20049;-52
2023/09/05 07:53:22;;;;;;;43.42;36.28;;;18.10;99.90;;;;;;5030294;28;20060;-53
2023/09/05 07:55:49;;;;;;;41.40;34.72;;;18.10;99.90;;;;;;5030411;28;20080;-56
2023/09/05 07:58:16;;;;;;;44.10;34.55;;;18.20;99.90;;;;;;5033866;28;20469;-55
2023/09/05 08:00:43;;;;;;;43.55;35.92;;;18.30;99.90;;;;;;5034208;28;20042;-54
2023/09/05 08:03:09;;;;;;;46.63;33.72;;;18.30;99.90;;;;;;5034251;28;20037;-54
2023/09/05 08:05:36;;;;;;;43.08;34.78;;;18.30;99.90;;;;;;5034164;28;20045;-50
2023/09/05 08:08:03;;;;;;;42.42;35.08;;;18.50;99.90;;;;;;5034095;28;20037;-52
2023/09/05 08:10:30;;;;;;;42.47;34.13;;;18.60;99.90;;;;;;5033613;28;20103;-53
2023/09/05 08:12:57;;;;;;;42.80;34.22;;;18.70;99.90;;;;;;5027237;28;20052;-53
2023/09/05 08:15:24;;;;;;;35.40;31.02;;;18.70;99.90;;;;;;5026206;28;20102;-52
2023/09/05 08:17:51;;;;;;;38.13;32.13;;;18.90;99.90;;;;;;5027101;28;20041;-54
2023/09/05 08:20:17;;;;;;;37.55;32.00;;;19.00;99.90;;;;;;5035200;28;20119;-49
2023/09/05 08:22:46;;;;;;;39.33;32.33;;;19.10;99.90;;;;;;5034356;28;20146;-47
2023/09/05 08:25:15;;;;;;;37.28;30.88;;;19.10;99.90;;;;;;5033459;28;20037;-50
2023/09/05 08:27:42;;;;;;;35.75;31.65;;;19.10;99.90;;;;;;5032518;28;20041;-53
2023/09/05 08:30:14;;;;;;;43.92;32.53;;;19.10;99.90;;;;;;5026879;28;20103;-54
2023/09/05 08:32:40;;;;;;;42.13;30.77;;;19.10;99.90;;;;;;5027579;28;20041;-52
2023/09/05 08:35:10;;;;;;;36.58;31.83;;;19.10;99.90;;;;;;5032256;28;20111;-55
2023/09/05 08:37:37;;;;;;;36.78;30.80;;;19.00;99.90;;;;;;5033241;28;20041;-49
2023/09/05 08:40:04;;;;;;;39.90;28.92;;;19.00;99.90;;;;;;5033321;28;20051;-57
2023/09/05 08:42:31;;;;;;;35.45;29.95;;;19.10;99.90;;;;;;5033705;28;20073;-49
2023/09/05 08:44:58;;;;;;;36.47;28.88;;;19.10;99.90;;;;;;5033610;28;20048;-48
2023/09/05 08:47:25;;;;;;;34.45;27.38;;;19.20;99.90;;;;;;5033367;28;20117;-53
2023/09/05 08:49:52;;;;;;;34.63;26.90;;;19.30;99.90;;;;;;5032991;28;20472;-52
2023/09/05 08:52:18;;;;;;;31.35;26.48;;;19.40;99.90;;;;;;5032768;28;20041;-49
2023/09/05 08:54:49;;;;;;;33.83;24.73;;;19.50;99.90;;;;;;5031653;28;20061;-47
2023/09/05 08:57:17;;;;;;;32.10;23.30;;;19.50;99.90;;;;;;5032986;28;20068;-52
2023/09/05 08:59:44;;;;;;;25.58;21.98;;;19.60;99.90;;;;;;5032679;28;20112;-49
2023/09/05 09:02:11;;;;;;;26.10;21.23;;;19.70;99.90;;;;;;5030603;28;20052;-51
2023/09/05 09:04:38;;;;;;;33.97;21.05;;;19.70;99.90;;;;;;5032557;28;20371;-45
2023/09/05 09:07:06;;;;;;;28.00;20.05;;;19.80;99.90;;;;;;5031740;28;20124;-49
2023/09/05 09:09:35;;;;;;;25.65;18.55;;;19.80;99.90;;;;;;5032808;28;20068;-46
2023/09/05 09:12:02;;;;;;;26.63;17.75;;;19.90;99.90;;;;;;5032510;28;20041;-48
2023/09/05 09:14:29;;;;;;;28.77;18.05;;;20.00;99.90;;;;;;5030839;28;20113;-50
2023/09/05 09:16:56;;;;;;;23.80;17.50;;;20.10;99.90;;;;;;5030330;28;20376;-50
2023/09/05 09:19:23;;;;;;;25.90;18.50;;;20.20;99.90;;;;;;5032415;28;20052;-47
2023/09/05 09:21:50;;;;;;;23.10;17.73;;;20.30;99.90;;;;;;5032276;28;20145;-48
2023/09/05 09:24:18;;;;;;;25.50;17.15;;;20.30;99.90;;;;;;5032386;28;20041;-50
2023/09/05 09:26:45;;;;;;;24.63;17.35;;;20.40;99.90;;;;;;5032420;28;20047;-47
2023/09/05 09:29:12;;;;;;;21.95;15.75;;;20.50;99.90;;;;;;5032634;28;20512;-51
2023/09/05 09:31:40;;;;;;;18.73;14.15;;;20.60;99.90;;;;;;5031921;28;20155;-50
2023/09/05 09:34:07;;;;;;;21.23;13.60;;;20.70;99.90;;;;;;5032553;28;20052;-52
2023/09/05 09:36:35;;;;;;;17.15;12.85;;;20.80;99.90;;;;;;5032293;28;20045;-54
2023/09/05 09:39:02;;;;;;;17.25;11.60;;;20.80;99.90;;;;;;5032683;28;20088;-51
2023/09/05 09:41:29;;;;;;;17.52;10.80;;;20.90;99.90;;;;;;5033092;28;20451;-52
2023/09/05 09:43:56;;;;;;;17.58;10.57;;;21.00;99.90;;;;;;5032273;28;20052;-52
2023/09/05 09:46:24;;;;;;;13.23;9.65;;;21.20;99.90;;;;;;5032371;28;20440;-52
2023/09/05 09:48:51;;;;;;;13.75;9.43;;;21.20;99.90;;;;;;5028326;28;20087;-53
2023/09/05 09:51:19;;;;;;;17.50;10.00;;;21.30;99.90;;;;;;5032374;28;20080;-52
2023/09/05 09:53:46;;;;;;;14.93;9.48;;;21.50;99.90;;;;;;5031836;28;20046;-49
2023/09/05 09:56:13;;;;;;;18.75;9.52;;;21.50;99.90;;;;;;5032391;28;20120;-53
2023/09/05 09:58:40;;;;;;;12.93;7.60;;;21.60;99.90;;;;;;5032117;28;20044;-52
2023/09/05 10:01:07;;;;;;;13.13;8.27;;;21.70;99.90;;;;;;5025907;28;20045;-49
2023/09/05 10:03:34;;;;;;;12.18;7.70;;;21.80;99.90;;;;;;5024172;28;20405;-50
2023/09/05 10:06:03;;;;;;;17.90;8.30;;;21.90;99.90;;;;;;5032292;28;20041;-54
2023/09/05 10:08:30;;;;;;;10.95;6.95;;;21.90;99.90;;;;;;5030829;28;20045;-52
2023/09/05 10:10:58;;;;;;;19.45;7.38;;;22.00;99.90;;;;;;5032103;28;20128;-50
2023/09/05 10:13:27;;;;;;;10.73;6.47;;;22.10;99.90;;;;;;5025547;28;20095;-47
2023/09/05 10:15:55;;;;;;;21.42;7.93;;;22.10;99.90;;;;;;5026247;28;20463;-54
2023/09/05 10:18:22;;;;;;;11.82;6.63;;;22.20;99.90;;;;;;5034316;28;20436;-51
2023/09/05 10:20:50;;;;;;;16.02;6.72;;;22.30;99.90;;;;;;5036074;28;20088;-53
2023/09/05 10:23:17;;;;;;;8.10;5.55;;;22.40;99.90;;;;;;5035459;28;20037;-54
2023/09/05 10:25:44;;;;;;;17.73;6.47;;;22.40;99.90;;;;;;5035547;28;20044;-49
2023/09/05 10:28:11;;;;;;;10.18;5.97;;;22.60;99.90;;;;;;5035832;28;20033;-50
2023/09/05 10:30:39;;;;;;;10.18;6.88;;;22.60;99.90;;;;;;5034623;28;20059;-55
2023/09/05 10:33:06;;;;;;;12.68;6.13;;;22.70;99.90;;;;;;5035886;28;20068;-51
2023/09/05 10:35:32;;;;;;;12.55;6.50;;;22.70;99.90;;;;;;5036184;28;20455;-51
2023/09/05 10:38:02;;;;;;;10.88;6.63;;;22.80;99.90;;;;;;5035277;28;20045;-54
2023/09/05 10:40:29;;;;;;;13.30;6.13;;;22.80;99.90;;;;;;5034385;28;20091;-53
2023/09/05 10:42:56;;;;;;;10.77;6.18;;;22.80;99.90;;;;;;5035753;28;20037;-51
2023/09/05 10:45:23;;;;;;;10.35;5.55;;;22.90;99.90;;;;;;5035684;28;20045;-49
2023/09/05 10:47:50;;;;;;;14.38;6.60;;;22.90;99.90;;;;;;5035268;28;20049;-52
2023/09/05 10:50:19;;;;;;;9.43;5.80;;;22.90;99.90;;;;;;5032332;28;20099;-49
2023/09/05 10:52:49;;;;;;;13.15;6.55;;;23.00;99.90;;;;;;5029170;28;20048;-54
2023/09/05 10:55:18;;;;;;;9.63;5.32;;;23.10;99.90;;;;;;5035340;28;20063;-53
2023/09/05 10:57:50;;;;;;;10.27;5.43;;;23.20;99.90;;;;;;5033559;28;20092;-55
2023/09/05 11:00:20;;;;;;;10.50;5.18;;;23.30;99.90;;;;;;5035245;28;20087;-54
2023/09/05 11:02:49;;;;;;;10.20;5.05;;;23.30;99.90;;;;;;5032071;28;20546;-53
2023/09/05 11:05:18;;;;;;;16.63;4.65;;;23.40;99.90;;;;;;5034946;28;20038;-50
2023/09/05 11:07:45;;;;;;;8.20;4.93;;;23.40;99.90;;;;;;5034595;28;20037;-52
2023/09/05 11:10:12;;;;;;;13.63;4.70;;;23.50;99.90;;;;;;5033863;28;20046;-56
2023/09/05 11:12:39;;;;;;;7.28;4.43;;;23.60;99.90;;;;;;5033241;28;20041;-54
2023/09/05 11:15:08;;;;;;;8.52;4.60;;;23.70;99.90;;;;;;5033118;28;20065;-50
2023/09/05 11:17:36;;;;;;;7.65;4.40;;;23.70;99.90;;;;;;5033418;28;20052;-50
2023/09/05 11:20:03;;;;;;;7.70;4.20;;;23.90;99.90;;;;;;5033698;28;20053;-48
2023/09/05 11:22:30;;;;;;;10.52;4.05;;;24.00;99.90;;;;;;5033987;28;20499;-48
2023/09/05 11:24:59;;;;;;;7.82;4.00;;;24.00;99.90;;;;;;5034095;28;20496;-48
2023/09/05 11:27:26;;;;;;;8.57;4.10;;;24.10;99.90;;;;;;5032248;28;20049;-49
2023/09/05 11:29:55;;;;;;;8.30;4.20;;;24.10;99.90;;;;;;5033257;28;20041;-52
2023/09/05 11:32:23;;;;;;;12.60;3.92;;;24.20;99.90;;;;;;5034263;28;20072;-49
2023/09/05 11:34:50;;;;;;;7.72;3.92;;;24.20;99.90;;;;;;5034270;28;20487;-53
2023/09/05 11:37:17;;;;;;;13.25;3.92;;;24.30;99.90;;;;;;5034168;28;20112;-48
2023/09/05 11:39:43;;;;;;;8.15;4.15;;;24.30;99.90;;;;;;5033900;28;20061;-50
2023/09/05 11:42:10;;;;;;;5.03;3.40;;;24.40;99.90;;;;;;5033851;28;20038;-49
2023/09/05 11:44:38;;;;;;;6.40;3.40;;;24.60;99.70;;;;;;5034222;28;20041;-50
2023/09/05 11:47:05;;;;;;;8.57;3.72;;;24.60;99.80;;;;;;5034618;28;20049;-52
2023/09/05 11:49:32;;;;;;;6.55;3.05;;;24.60;99.60;;;;;;5034903;28;20048;-56
2023/09/05 11:52:00;;;;;;;5.80;3.10;;;24.70;98.50;;;;;;5034018;28;20048;-51
2023/09/05 11:54:27;;;;;;;6.28;2.85;;;24.70;97.60;;;;;;5033549;28;20053;-52
2023/09/05 11:56:53;;;;;;;6.28;3.38;;;24.80;97.50;;;;;;5034200;28;20052;-52
2023/09/05 11:59:20;;;;;;;6.72;3.13;;;24.90;97.80;;;;;;5034045;28;20041;-51
2023/09/05 12:01:47;;;;;;;5.82;3.08;;;24.90;97.60;;;;;;5034118;28;20046;-53
2023/09/05 12:04:16;;;;;;;7.20;2.90;;;24.90;97.50;;;;;;5034116;28;20047;-50
2023/09/05 12:06:43;;;;;;;6.65;3.05;;;24.90;96.80;;;;;;5033962;28;20056;-57
2023/09/05 12:09:10;;;;;;;5.47;2.97;;;25.00;97.40;;;;;;5034051;28;20055;-48
2023/09/05 12:11:37;;;;;;;4.70;3.10;;;25.10;97.40;;;;;;5033987;28;20073;-53
2023/09/05 12:14:04;;;;;;;8.73;3.50;;;25.20;97.10;;;;;;5034226;28;20049;-51
2023/09/05 12:16:31;;;;;;;5.63;3.03;;;25.20;97.00;;;;;;5032551;28;20063;-49
2023/09/05 12:18:58;;;;;;;4.72;2.75;;;25.30;97.70;;;;;;5034132;28;20232;-51
2023/09/05 12:21:28;;;;;;;5.55;2.83;;;25.30;96.50;;;;;;5033331;28;20041;-50
2023/09/05 12:23:58;;;;;;;7.72;2.97;;;25.40;96.90;;;;;;5033733;28;20124;-52
2023/09/05 12:26:24;;;;;;;6.00;3.13;;;25.40;96.80;;;;;;5033547;28;20046;-53
2023/09/05 12:28:51;;;;;;;5.90;3.30;;;25.40;96.70;;;;;;5033416;28;20129;-51
2023/09/05 12:31:20;;;;;;;7.35;2.97;;;25.50;96.60;;;;;;5033431;28;20117;-55